createdAt,value
2023-03-30T00:00:43.286Z,101129.77
2023-03-30T00:01:54.837Z,101130.80
2023-03-30T00:02:58.838Z,101128.73
2023-03-30T00:04:02.751Z,101128.00
2023-03-30T00:05:06.522Z,101126.40
2023-03-30T00:06:10.772Z,101127.50
2023-03-30T00:07:13.584Z,101128.54
2023-03-30T00:08:18.712Z,101127.39
2023-03-30T00:09:22.824Z,101128.23
2023-03-30T00:10:27.193Z,101128.02
2023-03-30T00:11:34.648Z,101128.89
2023-03-30T00:12:38.098Z,101125.68
2023-03-30T00:13:42.052Z,101127.52
2023-03-30T00:14:44.896Z,101127.02
2023-03-30T00:15:50.201Z,101126.83
2023-03-30T00:16:53.539Z,101126.66
2023-03-30T00:17:56.541Z,101119.30
2023-03-30T00:19:00.510Z,101122.54
2023-03-30T00:20:09.035Z,101124.80
2023-03-30T00:21:12.146Z,101123.36
2023-03-30T00:22:15.097Z,101123.70
2023-03-30T00:23:19.213Z,101125.42
2023-03-30T00:24:22.463Z,101127.61
2023-03-30T00:25:25.689Z,101124.81
2023-03-30T00:26:28.573Z,101125.11
2023-03-30T00:27:31.455Z,101124.92
2023-03-30T00:28:34.791Z,101124.73
2023-03-30T00:29:37.671Z,101121.45
2023-03-30T00:30:40.684Z,101120.95
2023-03-30T00:31:43.938Z,101124.02
2023-03-30T00:32:47.360Z,101117.29
2023-03-30T00:33:51.892Z,101120.48
2023-03-30T00:34:55.728Z,101113.25
2023-03-30T00:35:58.968Z,101116.05
2023-03-30T00:37:04.092Z,101114.74
2023-03-30T00:38:07.017Z,101112.00
2023-03-30T00:39:10.012Z,101111.10
2023-03-30T00:40:20.820Z,101112.77
2023-03-30T00:41:24.243Z,101107.95
2023-03-30T00:42:27.171Z,101109.95
2023-03-30T00:43:30.605Z,101112.79
2023-03-30T00:45:11.706Z,101112.15
2023-03-30T00:46:14.759Z,101111.07
2023-03-30T00:47:18.059Z,101108.23
2023-03-30T00:48:23.120Z,101109.83
2023-03-30T00:49:26.613Z,101108.36
2023-03-30T00:50:36.989Z,101106.09
2023-03-30T00:51:42.756Z,101106.99
2023-03-30T00:52:46.404Z,101107.17
2023-03-30T00:53:52.819Z,101104.55
2023-03-30T00:54:57.740Z,101103.59
2023-03-30T00:56:02.464Z,101099.23
2023-03-30T00:57:07.832Z,101102.80
2023-03-30T00:58:12.122Z,101100.36
2023-03-30T00:59:15.800Z,101100.52
2023-03-30T01:00:19.929Z,101101.55
2023-03-30T01:01:28.816Z,101100.82
2023-03-30T01:02:37.949Z,101097.66
2023-03-30T01:03:45.754Z,101098.80
2023-03-30T01:04:53.975Z,101099.33
2023-03-30T01:06:00.031Z,101097.12
2023-03-30T01:07:05.143Z,101097.62
2023-03-30T01:08:10.005Z,101098.28
2023-03-30T01:09:14.050Z,101095.39
2023-03-30T01:10:17.879Z,101096.55
2023-03-30T01:11:21.683Z,101094.17
2023-03-30T01:12:24.659Z,101095.72
2023-03-30T01:13:30.038Z,101095.27
2023-03-30T01:14:33.389Z,101094.44
2023-03-30T01:15:44.620Z,101095.21
2023-03-30T01:16:53.510Z,101092.78
2023-03-30T01:18:40.140Z,101093.05
2023-03-30T01:20:13.113Z,101094.69
2023-03-30T01:21:34.629Z,101087.19
2023-03-30T01:23:02.275Z,101087.96
2023-03-30T01:24:24.062Z,101083.73
2023-03-30T01:25:36.884Z,101087.73
2023-03-30T01:26:43.251Z,101084.88
2023-03-30T01:28:06.452Z,101086.91
2023-03-30T01:29:17.442Z,101087.25
2023-03-30T01:32:02.401Z,101084.52
2023-03-30T01:33:17.676Z,101082.25
2023-03-30T01:34:43.117Z,101083.83
2023-03-30T01:36:10.840Z,101082.69
2023-03-30T01:37:41.846Z,101086.17
2023-03-30T01:38:44.775Z,101082.41
2023-03-30T01:39:53.547Z,101086.95
2023-03-30T01:41:20.146Z,101086.21
2023-03-30T01:42:41.407Z,101086.27
2023-03-30T01:43:58.804Z,101082.56
2023-03-30T01:45:42.732Z,101081.48
2023-03-30T01:46:59.864Z,101079.48
2023-03-30T01:48:12.925Z,101078.75
2023-03-30T01:49:30.589Z,101076.83
2023-03-30T01:50:44.565Z,101074.27
2023-03-30T01:52:00.031Z,101075.22
2023-03-30T01:53:11.837Z,101072.09
2023-03-30T01:54:25.273Z,101072.89
2023-03-30T01:55:41.613Z,101073.66
2023-03-30T01:57:03.346Z,101069.65
2023-03-30T01:58:09.659Z,101071.11
2023-03-30T01:59:20.248Z,101072.81
2023-03-30T02:00:24.336Z,101070.67
2023-03-30T02:01:28.431Z,101070.27
2023-03-30T02:02:33.058Z,101073.17
2023-03-30T02:03:39.314Z,101071.59
2023-03-30T02:04:43.436Z,101075.48
2023-03-30T02:05:50.105Z,101070.38
2023-03-30T02:06:59.870Z,101072.10
2023-03-30T02:08:09.745Z,101075.90
2023-03-30T02:09:15.972Z,101070.17
2023-03-30T02:10:20.161Z,101070.48
2023-03-30T02:11:26.820Z,101073.86
2023-03-30T02:12:31.292Z,101068.18
2023-03-30T02:13:35.893Z,101073.25
2023-03-30T02:14:40.631Z,101071.92
2023-03-30T02:15:46.562Z,101074.32
2023-03-30T02:16:50.324Z,101068.73
2023-03-30T02:17:53.136Z,101070.55
2023-03-30T02:18:57.882Z,101070.20
2023-03-30T02:20:00.774Z,101067.56
2023-03-30T02:21:03.896Z,101068.23
2023-03-30T02:22:08.756Z,101069.95
2023-03-30T02:23:11.552Z,101068.09
2023-03-30T02:24:18.837Z,101066.83
2023-03-30T02:25:23.368Z,101063.21
2023-03-30T02:26:27.308Z,101066.14
2023-03-30T02:27:32.142Z,101065.13
2023-03-30T02:28:35.633Z,101065.09
2023-03-30T02:29:41.070Z,101068.27
2023-03-30T02:30:45.377Z,101065.91
2023-03-30T02:31:49.805Z,101065.38
2023-03-30T02:32:55.024Z,101067.86
2023-03-30T02:34:04.410Z,101070.30
2023-03-30T02:35:19.938Z,101072.64
2023-03-30T02:36:38.030Z,101070.84
2023-03-30T02:37:46.695Z,101066.63
2023-03-30T02:39:05.171Z,101069.70
2023-03-30T02:40:40.768Z,101067.32
2023-03-30T02:41:52.719Z,101065.92
2023-03-30T02:42:55.544Z,101067.44
2023-03-30T02:44:01.175Z,101066.13
2023-03-30T02:45:11.221Z,101066.73
2023-03-30T02:46:28.582Z,101062.96
2023-03-30T02:47:34.223Z,101059.36
2023-03-30T02:48:37.287Z,101058.14
2023-03-30T02:49:43.477Z,101061.45
2023-03-30T02:50:56.434Z,101056.68
2023-03-30T02:52:38.181Z,101053.73
2023-03-30T02:53:52.863Z,101053.67
2023-03-30T02:55:28.720Z,101050.51
2023-03-30T02:57:09.290Z,101048.95
2023-03-30T02:58:33.941Z,101048.53
2023-03-30T03:00:13.266Z,101049.70
2023-03-30T03:01:19.389Z,101046.84
2023-03-30T03:02:30.171Z,101045.08
2023-03-30T03:03:45.006Z,101044.38
2023-03-30T03:04:50.054Z,101041.16
2023-03-30T03:06:15.781Z,101040.84
2023-03-30T03:07:25.185Z,101040.93
2023-03-30T03:08:34.131Z,101040.92
2023-03-30T03:09:37.901Z,101041.16
2023-03-30T03:10:40.691Z,101040.39
2023-03-30T03:11:43.652Z,101037.62
2023-03-30T03:12:46.892Z,101037.41
2023-03-30T03:13:50.527Z,101037.67
2023-03-30T03:14:54.141Z,101031.13
2023-03-30T03:15:57.268Z,101036.00
2023-03-30T03:17:02.545Z,101035.95
2023-03-30T03:18:10.713Z,101033.66
2023-03-30T03:19:14.014Z,101031.34
2023-03-30T03:20:17.330Z,101031.45
2023-03-30T03:21:20.045Z,101030.80
2023-03-30T03:22:22.768Z,101028.09
2023-03-30T03:23:26.909Z,101029.04
2023-03-30T03:24:33.894Z,101028.22
2023-03-30T03:25:57.000Z,101025.17
2023-03-30T03:27:00.007Z,101019.73
2023-03-30T03:28:04.131Z,101024.06
2023-03-30T03:29:17.986Z,101023.98
2023-03-30T03:30:20.725Z,101019.01
2023-03-30T03:31:31.596Z,101020.06
2023-03-30T03:32:35.395Z,101015.99
2023-03-30T03:33:38.411Z,101015.09
2023-03-30T03:34:48.675Z,101013.77
2023-03-30T03:35:54.317Z,101014.59
2023-03-30T03:36:58.415Z,101012.02
2023-03-30T03:38:03.124Z,101014.59
2023-03-30T03:39:05.989Z,101012.03
2023-03-30T03:40:11.320Z,101009.83
2023-03-30T03:41:14.389Z,101007.94
2023-03-30T03:42:17.884Z,101009.78
2023-03-30T03:43:34.372Z,101009.40
2023-03-30T03:44:37.848Z,101007.48
2023-03-30T03:45:40.679Z,101007.27
2023-03-30T03:46:43.421Z,101005.89
2023-03-30T03:47:46.292Z,101003.08
2023-03-30T03:48:49.182Z,101003.55
2023-03-30T03:49:52.398Z,101002.48
2023-03-30T03:50:57.043Z,101001.50
2023-03-30T03:51:59.956Z,100998.37
2023-03-30T03:53:02.789Z,100998.35
2023-03-30T03:54:05.747Z,101000.11
2023-03-30T03:55:09.402Z,100998.25
2023-03-30T03:56:14.399Z,100997.48
2023-03-30T03:57:17.312Z,101000.09
2023-03-30T03:58:20.881Z,100998.77
2023-03-30T03:59:23.790Z,100997.27
2023-03-30T04:00:26.965Z,100998.42
2023-03-30T04:01:30.635Z,100997.91
2023-03-30T04:02:33.449Z,100996.64
2023-03-30T04:03:36.341Z,100995.28
2023-03-30T04:04:39.274Z,100994.96
2023-03-30T04:05:42.221Z,100994.50
2023-03-30T04:06:46.185Z,100995.30
2023-03-30T04:07:50.098Z,100996.45
2023-03-30T04:08:53.158Z,100995.45
2023-03-30T04:10:07.971Z,100994.05
2023-03-30T04:11:19.995Z,100995.92
2023-03-30T04:12:41.695Z,100992.27
2023-03-30T04:13:59.360Z,100994.42
2023-03-30T04:15:16.896Z,100994.63
2023-03-30T04:16:45.844Z,100992.92
2023-03-30T04:18:11.167Z,100990.92
2023-03-30T04:19:31.601Z,100990.30
2023-03-30T04:21:05.485Z,100986.86
2023-03-30T04:22:52.647Z,100986.72
2023-03-30T04:24:14.065Z,100981.11
2023-03-30T04:25:55.156Z,100984.70
2023-03-30T04:27:17.118Z,100983.02
2023-03-30T04:28:40.667Z,100985.04
2023-03-30T04:30:02.258Z,100982.63
2023-03-30T04:31:10.902Z,100984.08
2023-03-30T04:32:38.978Z,100983.13
2023-03-30T04:34:09.560Z,100986.21
2023-03-30T04:35:14.343Z,100985.20
2023-03-30T04:36:35.924Z,100980.44
2023-03-30T04:37:58.301Z,100981.02
2023-03-30T04:39:22.731Z,100980.61
2023-03-30T04:40:53.144Z,100979.61
2023-03-30T04:42:14.197Z,100977.47
2023-03-30T04:43:36.185Z,100977.36
2023-03-30T04:44:50.635Z,100979.37
2023-03-30T04:46:14.211Z,100977.83
2023-03-30T04:47:38.430Z,100977.48
2023-03-30T04:49:01.657Z,100976.76
2023-03-30T04:50:33.567Z,100978.31
2023-03-30T04:52:01.284Z,100976.52
2023-03-30T04:53:27.138Z,100977.47
2023-03-30T04:54:36.037Z,100971.16
2023-03-30T04:55:57.458Z,100968.68
2023-03-30T04:57:23.271Z,100969.19
2023-03-30T04:58:43.134Z,100968.88
2023-03-30T05:00:12.207Z,100963.40
2023-03-30T05:01:47.255Z,100958.22
2023-03-30T05:02:59.156Z,100961.63
2023-03-30T05:04:19.227Z,100960.02
2023-03-30T05:05:40.292Z,100959.79
2023-03-30T05:06:44.253Z,100956.82
2023-03-30T05:08:05.706Z,100953.67
2023-03-30T05:09:34.726Z,100954.84
2023-03-30T05:11:05.233Z,100956.23
2023-03-30T05:12:26.409Z,100957.40
2023-03-30T05:13:37.129Z,100953.83
2023-03-30T05:15:15.966Z,100953.24
2023-03-30T05:16:24.618Z,100948.18
2023-03-30T05:17:43.938Z,100948.23
2023-03-30T05:19:09.897Z,100947.56
2023-03-30T05:20:13.637Z,100949.13
2023-03-30T05:21:22.411Z,100948.23
2023-03-30T05:22:49.610Z,100945.72
2023-03-30T05:24:30.612Z,100948.23
2023-03-30T05:25:55.176Z,100947.73
2023-03-30T05:27:24.263Z,100951.10
2023-03-30T05:28:33.063Z,100952.39
2023-03-30T05:30:11.344Z,100951.52
2023-03-30T05:31:33.216Z,100955.39
2023-03-30T05:32:49.034Z,100955.59
2023-03-30T05:34:20.700Z,100953.10
2023-03-30T05:35:34.913Z,100956.88
2023-03-30T05:36:59.247Z,100958.16
2023-03-30T05:38:14.497Z,100958.80
2023-03-30T05:39:17.268Z,100955.90
2023-03-30T05:40:28.912Z,100961.25
2023-03-30T05:41:46.543Z,100958.50
2023-03-30T05:43:04.052Z,100961.05
2023-03-30T05:44:30.107Z,100958.73
2023-03-30T05:45:51.809Z,100955.85
2023-03-30T05:47:07.924Z,100953.54
2023-03-30T05:48:36.611Z,100952.23
2023-03-30T05:49:55.185Z,100952.06
2023-03-30T05:51:06.099Z,100948.09
2023-03-30T05:52:18.194Z,100946.89
2023-03-30T05:53:59.410Z,100947.68
2023-03-30T05:55:23.893Z,100942.64
2023-03-30T05:56:40.151Z,100942.41
2023-03-30T05:58:23.086Z,100947.27
2023-03-30T05:59:37.322Z,100950.23
2023-03-30T06:01:06.196Z,100945.72
2023-03-30T06:02:12.999Z,100947.45
2023-03-30T06:03:16.448Z,100944.67
2023-03-30T06:04:20.247Z,100942.63
2023-03-30T06:05:24.535Z,100944.08
2023-03-30T06:06:28.314Z,100939.73
2023-03-30T06:07:31.123Z,100937.94
2023-03-30T06:08:34.486Z,100937.33
2023-03-30T06:09:39.023Z,100937.81
2023-03-30T06:10:53.362Z,100933.70
2023-03-30T06:11:56.616Z,100932.80
2023-03-30T06:13:01.247Z,100931.98
2023-03-30T06:14:11.972Z,100932.17
2023-03-30T06:15:15.730Z,100931.26
2023-03-30T06:16:29.285Z,100931.63
2023-03-30T06:17:33.323Z,100931.00
2023-03-30T06:18:36.117Z,100932.02
2023-03-30T06:19:42.353Z,100932.20
2023-03-30T06:20:48.815Z,100928.36
2023-03-30T06:21:54.032Z,100931.23
2023-03-30T06:23:21.356Z,100934.21
2023-03-30T06:24:25.689Z,100931.21
2023-03-30T06:25:29.758Z,100930.81
2023-03-30T06:26:33.204Z,100932.17
2023-03-30T06:27:36.432Z,100929.27
2023-03-30T06:28:39.550Z,100927.98
2023-03-30T06:29:43.727Z,100930.08
2023-03-30T06:30:48.818Z,100926.68
2023-03-30T06:31:52.010Z,100926.67
2023-03-30T06:33:18.414Z,100924.85
2023-03-30T06:34:28.819Z,100924.13
2023-03-30T06:35:31.973Z,100924.33
2023-03-30T06:36:45.171Z,100922.85
2023-03-30T06:37:49.181Z,100926.61
2023-03-30T06:38:52.247Z,100929.30
2023-03-30T06:39:56.533Z,100929.53
2023-03-30T06:41:03.489Z,100927.73
2023-03-30T06:42:10.112Z,100926.09
2023-03-30T06:43:26.611Z,100930.40
2023-03-30T06:44:56.265Z,100928.64
2023-03-30T06:46:00.309Z,100925.98
2023-03-30T06:47:05.570Z,100932.40
2023-03-30T06:48:07.491Z,100932.16
2023-03-30T06:49:13.223Z,100930.54
2023-03-30T06:50:19.376Z,100928.33
2023-03-30T06:51:38.081Z,100928.89
2023-03-30T06:52:42.088Z,100929.08
2023-03-30T06:53:44.853Z,100928.84
2023-03-30T06:54:47.783Z,100928.13
2023-03-30T06:55:57.856Z,100926.04
2023-03-30T06:57:01.398Z,100923.81
2023-03-30T06:58:04.227Z,100924.13
2023-03-30T06:59:07.158Z,100924.98
2023-03-30T07:00:18.351Z,100926.04
2023-03-30T07:01:40.138Z,100926.02
2023-03-30T07:02:56.805Z,100922.91
2023-03-30T07:04:07.447Z,100919.53
2023-03-30T07:05:30.021Z,100917.09
2023-03-30T07:06:41.479Z,100918.58
2023-03-30T07:07:45.291Z,100918.27
2023-03-30T07:08:48.455Z,100919.23
2023-03-30T07:09:54.977Z,100919.27
2023-03-30T07:10:58.983Z,100921.46
2023-03-30T07:12:05.336Z,100921.44
2023-03-30T07:13:10.244Z,100922.58
2023-03-30T07:14:13.646Z,100923.72
2023-03-30T07:15:16.769Z,100922.03
2023-03-30T07:16:19.947Z,100917.98
2023-03-30T07:17:26.463Z,100919.39
2023-03-30T07:18:29.744Z,100920.92
2023-03-30T07:19:32.592Z,100919.92
2023-03-30T07:20:35.403Z,100917.10
2023-03-30T07:22:01.304Z,100918.58
2023-03-30T07:23:04.200Z,100918.30
2023-03-30T07:24:08.253Z,100913.32
2023-03-30T07:25:12.237Z,100911.10
2023-03-30T07:26:15.626Z,100911.64
2023-03-30T07:27:36.238Z,100914.61
2023-03-30T07:28:40.409Z,100911.44
2023-03-30T07:29:43.549Z,100910.98
2023-03-30T07:30:46.507Z,100912.35
2023-03-30T07:31:49.375Z,100912.70
2023-03-30T07:32:52.645Z,100908.42
2023-03-30T07:33:56.063Z,100902.56
2023-03-30T07:35:01.559Z,100903.30
2023-03-30T07:36:04.804Z,100903.17
2023-03-30T07:37:08.042Z,100904.75
2023-03-30T07:38:11.215Z,100899.27
2023-03-30T07:39:16.900Z,100900.08
2023-03-30T07:40:21.433Z,100900.09
2023-03-30T07:41:24.371Z,100900.27
2023-03-30T07:42:30.009Z,100895.16
2023-03-30T07:43:33.160Z,100898.66
2023-03-30T07:44:37.296Z,100896.56
2023-03-30T07:45:42.384Z,100895.56
2023-03-30T07:46:46.598Z,100895.75
2023-03-30T07:47:54.663Z,100896.58
2023-03-30T07:48:58.138Z,100896.61
2023-03-30T07:50:01.985Z,100897.76
2023-03-30T07:51:07.435Z,100898.61
2023-03-30T07:52:13.003Z,100892.83
2023-03-30T07:53:26.451Z,100896.64
2023-03-30T07:54:29.272Z,100895.77
2023-03-30T07:55:41.392Z,100896.08
2023-03-30T07:56:55.050Z,100896.67
2023-03-30T07:57:58.133Z,100896.38
2023-03-30T07:59:01.899Z,100895.34
2023-03-30T08:00:10.484Z,100897.89
2023-03-30T08:01:34.167Z,100893.66
2023-03-30T08:03:00.128Z,100892.95
2023-03-30T08:04:04.571Z,100892.34
2023-03-30T08:05:09.778Z,100890.73
2023-03-30T08:06:22.489Z,100889.77
2023-03-30T08:07:28.810Z,100886.66
2023-03-30T08:08:39.151Z,100882.79
2023-03-30T08:09:42.169Z,100878.97
2023-03-30T08:10:45.001Z,100878.02
2023-03-30T08:11:47.803Z,100874.13
2023-03-30T08:12:50.774Z,100876.54
2023-03-30T08:13:53.605Z,100872.32
2023-03-30T08:14:56.571Z,100872.59
2023-03-30T08:15:59.534Z,100872.96
2023-03-30T08:17:02.383Z,100872.56
2023-03-30T08:18:08.269Z,100870.36
2023-03-30T08:19:12.099Z,100869.11
2023-03-30T08:20:15.097Z,100872.17
2023-03-30T08:21:17.982Z,100869.66
2023-03-30T08:22:21.085Z,100870.48
2023-03-30T08:23:24.170Z,100871.11
2023-03-30T08:24:27.064Z,100868.55
2023-03-30T08:25:30.036Z,100865.72
2023-03-30T08:26:32.924Z,100868.82
2023-03-30T08:27:36.405Z,100864.43
2023-03-30T08:28:39.738Z,100862.65
2023-03-30T08:29:42.589Z,100864.75
2023-03-30T08:30:45.522Z,100861.29
2023-03-30T08:31:48.541Z,100863.61
2023-03-30T08:32:52.132Z,100860.79
2023-03-30T08:33:55.120Z,100860.50
2023-03-30T08:34:57.915Z,100855.55
2023-03-30T08:36:01.000Z,100858.60
2023-03-30T08:37:04.009Z,100855.88
2023-03-30T08:38:06.809Z,100852.69
2023-03-30T08:39:10.920Z,100849.71
2023-03-30T08:40:15.041Z,100848.73
2023-03-30T08:41:18.772Z,100846.20
2023-03-30T08:42:21.540Z,100844.82
2023-03-30T08:43:36.813Z,100845.70
2023-03-30T08:44:41.129Z,100839.21
2023-03-30T08:45:44.627Z,100840.33
2023-03-30T08:46:48.404Z,100844.05
2023-03-30T08:47:52.742Z,100842.02
2023-03-30T08:48:59.567Z,100836.09
2023-03-30T08:50:06.957Z,100836.27
2023-03-30T08:51:19.134Z,100836.43
2023-03-30T08:52:23.957Z,100831.77
2023-03-30T08:53:28.541Z,100833.39
2023-03-30T08:54:32.506Z,100829.00
2023-03-30T08:55:48.777Z,100826.20
2023-03-30T08:56:54.958Z,100823.80
2023-03-30T08:58:02.233Z,100823.51
2023-03-30T08:59:23.645Z,100824.38
2023-03-30T09:00:34.096Z,100824.94
2023-03-30T09:01:37.019Z,100823.11
2023-03-30T09:02:43.168Z,100820.12
2023-03-30T09:04:04.895Z,100819.42
2023-03-30T09:05:23.101Z,100817.95
2023-03-30T09:06:31.832Z,100820.13
2023-03-30T09:07:45.153Z,100820.02
2023-03-30T09:08:49.009Z,100814.48
2023-03-30T09:09:52.376Z,100819.44
2023-03-30T09:10:58.135Z,100816.66
2023-03-30T09:12:13.199Z,100815.00
2023-03-30T09:13:18.873Z,100814.88
2023-03-30T09:14:29.122Z,100813.21
2023-03-30T09:15:39.283Z,100812.11
2023-03-30T09:16:42.048Z,100809.80
2023-03-30T09:18:00.709Z,100804.63
2023-03-30T09:19:05.658Z,100808.55
2023-03-30T09:20:12.403Z,100808.69
2023-03-30T09:21:16.038Z,100802.52
2023-03-30T09:22:19.592Z,100803.19
2023-03-30T09:23:22.479Z,100799.52
2023-03-30T09:24:27.009Z,100801.83
2023-03-30T09:25:42.484Z,100798.86
2023-03-30T09:26:49.559Z,100799.89
2023-03-30T09:28:12.364Z,100794.96
2023-03-30T09:29:39.665Z,100789.14
2023-03-30T09:30:45.737Z,100789.13
2023-03-30T09:31:55.243Z,100787.80
2023-03-30T09:33:00.161Z,100783.94
2023-03-30T09:34:09.261Z,100781.31
2023-03-30T09:35:19.241Z,100776.09
2023-03-30T09:36:40.976Z,100768.84
2023-03-30T09:37:43.660Z,100766.02
2023-03-30T09:38:46.391Z,100766.73
2023-03-30T09:39:50.894Z,100764.16
2023-03-30T09:41:07.520Z,100760.32
2023-03-30T09:42:21.870Z,100754.48
2023-03-30T09:43:46.417Z,100751.35
2023-03-30T09:44:51.952Z,100753.73
2023-03-30T09:45:55.445Z,100755.16
2023-03-30T09:46:59.476Z,100752.96
2023-03-30T09:48:08.522Z,100753.42
2023-03-30T09:49:13.213Z,100751.70
2023-03-30T09:50:26.848Z,100746.45
2023-03-30T09:51:31.285Z,100742.92
2023-03-30T09:52:38.924Z,100742.14
2023-03-30T09:53:42.645Z,100737.95
2023-03-30T09:54:45.345Z,100737.91
2023-03-30T09:55:57.568Z,100734.77
2023-03-30T09:57:00.557Z,100732.48
2023-03-30T09:58:26.741Z,100726.31
2023-03-30T09:59:33.952Z,100724.54
2023-03-30T10:00:36.712Z,100722.69
2023-03-30T10:01:39.666Z,100714.29
2023-03-30T10:02:54.411Z,100718.05
2023-03-30T10:04:11.002Z,100714.86
2023-03-30T10:05:18.360Z,100710.56
2023-03-30T10:06:21.646Z,100714.64
2023-03-30T10:07:26.532Z,100709.31
2023-03-30T10:08:29.681Z,100710.27
2023-03-30T10:09:32.497Z,100705.19
2023-03-30T10:10:36.809Z,100702.77
2023-03-30T10:11:42.325Z,100696.76
2023-03-30T10:12:45.050Z,100692.95
2023-03-30T10:13:49.623Z,100689.25
2023-03-30T10:15:01.600Z,100692.57
2023-03-30T10:16:09.238Z,100689.23
2023-03-30T10:17:24.565Z,100687.02
2023-03-30T10:18:28.854Z,100682.75
2023-03-30T10:19:35.540Z,100682.77
2023-03-30T10:20:40.341Z,100681.33
2023-03-30T10:21:47.096Z,100683.90
2023-03-30T10:22:53.176Z,100683.35
2023-03-30T10:24:08.741Z,100689.14
2023-03-30T10:25:18.219Z,100677.73
2023-03-30T10:26:21.048Z,100675.02
2023-03-30T10:27:34.554Z,100675.27
2023-03-30T10:28:37.637Z,100668.48
2023-03-30T10:29:45.409Z,100671.03
2023-03-30T10:30:52.702Z,100668.94
2023-03-30T10:32:02.183Z,100671.42
2023-03-30T10:33:10.193Z,100671.98
2023-03-30T10:34:42.911Z,100681.44
2023-03-30T10:35:47.939Z,100673.65
2023-03-30T10:36:54.699Z,100669.15
2023-03-30T10:37:58.973Z,100664.98
2023-03-30T10:39:22.343Z,100665.60
2023-03-30T10:40:32.602Z,100656.45
2023-03-30T10:41:37.663Z,100651.08
2023-03-30T10:42:40.968Z,100652.39
2023-03-30T10:43:44.993Z,100655.90
2023-03-30T10:44:50.765Z,100657.50
2023-03-30T10:45:54.559Z,100654.38
2023-03-30T10:47:08.528Z,100654.22
2023-03-30T10:48:23.570Z,100651.60
2023-03-30T10:49:38.262Z,100655.13
2023-03-30T10:50:47.303Z,100659.27
2023-03-30T10:52:09.584Z,100658.59
2023-03-30T10:53:24.769Z,100657.67
2023-03-30T10:54:33.312Z,100668.67
2023-03-30T10:55:41.756Z,100675.98
2023-03-30T10:56:47.125Z,100669.83
2023-03-30T10:57:56.707Z,100667.99
2023-03-30T10:59:02.166Z,100666.18
2023-03-30T11:00:11.340Z,100662.34
2023-03-30T11:01:37.412Z,100658.98
2023-03-30T11:02:54.353Z,100658.80
2023-03-30T11:04:06.790Z,100652.14
2023-03-30T11:05:31.997Z,100645.38
2023-03-30T11:06:38.670Z,100645.66
2023-03-30T11:07:44.208Z,100646.65
2023-03-30T11:08:49.774Z,100647.48
2023-03-30T11:09:54.654Z,100645.52
2023-03-30T11:10:59.188Z,100650.45
2023-03-30T11:12:04.738Z,100658.77
2023-03-30T11:13:11.611Z,100659.51
2023-03-30T11:14:19.249Z,100659.58
2023-03-30T11:15:26.670Z,100655.66
2023-03-30T11:16:52.834Z,100654.83
2023-03-30T11:18:14.883Z,100649.23
2023-03-30T11:19:26.213Z,100640.24
2023-03-30T11:20:31.976Z,100632.90
2023-03-30T11:21:42.592Z,100628.89
2023-03-30T11:22:48.203Z,100628.17
2023-03-30T11:24:07.500Z,100627.11
2023-03-30T11:25:36.299Z,100620.39
2023-03-30T11:26:45.389Z,100612.94
2023-03-30T11:27:56.568Z,100608.87
2023-03-30T11:28:59.326Z,100604.35
2023-03-30T11:30:08.988Z,100603.82
2023-03-30T11:31:19.008Z,100599.83
2023-03-30T11:32:34.795Z,100600.71
2023-03-30T11:33:51.562Z,100599.65
2023-03-30T11:35:26.770Z,100603.11
2023-03-30T11:36:37.921Z,100594.04
2023-03-30T11:37:52.740Z,100586.66
2023-03-30T11:38:58.833Z,100587.58
2023-03-30T11:40:13.455Z,100582.67
2023-03-30T11:41:36.968Z,100578.71
2023-03-30T11:42:39.990Z,100576.42
2023-03-30T11:43:42.863Z,100578.69
2023-03-30T11:44:45.850Z,100577.50
2023-03-30T11:46:03.280Z,100579.64
2023-03-30T11:47:20.460Z,100580.69
2023-03-30T11:48:38.530Z,100583.38
2023-03-30T11:50:07.751Z,100586.39
2023-03-30T11:51:19.598Z,100584.25
2023-03-30T11:52:28.706Z,100587.58
2023-03-30T11:53:41.074Z,100586.88
2023-03-30T11:55:02.205Z,100585.76
2023-03-30T11:56:06.924Z,100578.19
2023-03-30T11:57:32.817Z,100576.56
2023-03-30T11:58:37.445Z,100565.61
2023-03-30T11:59:40.409Z,100564.23
2023-03-30T12:00:49.723Z,100564.56
2023-03-30T12:02:04.908Z,100564.08
2023-03-30T12:03:22.991Z,100564.17
2023-03-30T12:04:32.626Z,100569.89
2023-03-30T12:05:38.287Z,100572.19
2023-03-30T12:06:42.515Z,100563.15
2023-03-30T12:08:21.021Z,100558.89
2023-03-30T12:09:35.581Z,100550.08
2023-03-30T12:10:42.448Z,100549.82
2023-03-30T12:11:54.292Z,100541.45
2023-03-30T12:12:57.746Z,100542.91
2023-03-30T12:14:01.342Z,100542.07
2023-03-30T12:15:16.275Z,100539.91
2023-03-30T12:16:39.518Z,100536.63
2023-03-30T12:17:51.712Z,100540.47
2023-03-30T12:19:03.687Z,100535.00
2023-03-30T12:20:09.421Z,100532.96
2023-03-30T12:21:15.298Z,100533.49
2023-03-30T12:22:25.207Z,100530.73
2023-03-30T12:23:40.805Z,100532.70
2023-03-30T12:24:51.807Z,100536.81
2023-03-30T12:26:13.662Z,100534.90
2023-03-30T12:27:16.499Z,100534.64
2023-03-30T12:28:24.251Z,100536.44
2023-03-30T12:30:01.770Z,100537.50
2023-03-30T12:31:06.999Z,100535.61
2023-03-30T12:32:20.252Z,100535.02
2023-03-30T12:33:28.582Z,100532.86
2023-03-30T12:34:42.916Z,100536.38
2023-03-30T12:35:48.563Z,100537.95
2023-03-30T12:37:05.471Z,100532.42
2023-03-30T12:38:08.429Z,100530.50
2023-03-30T12:39:18.060Z,100528.86
2023-03-30T12:40:22.451Z,100525.88
2023-03-30T12:41:26.928Z,100523.28
2023-03-30T12:42:34.741Z,100530.63
2023-03-30T12:43:41.669Z,100529.48
2023-03-30T12:45:01.712Z,100532.29
2023-03-30T12:46:14.234Z,100529.44
2023-03-30T12:47:20.536Z,100534.42
2023-03-30T12:48:37.575Z,100530.70
2023-03-30T12:49:50.525Z,100522.90
2023-03-30T12:51:07.891Z,100517.95
2023-03-30T12:52:14.307Z,100515.55
2023-03-30T12:53:36.055Z,100511.42
2023-03-30T12:55:08.774Z,100510.67
2023-03-30T12:56:17.778Z,100505.10
2023-03-30T12:57:39.260Z,100503.16
2023-03-30T12:59:00.798Z,100494.52
2023-03-30T13:00:19.184Z,100488.95
2023-03-30T13:01:41.461Z,100485.77
2023-03-30T13:02:44.452Z,100481.44
2023-03-30T13:03:52.991Z,100477.13
2023-03-30T13:04:56.737Z,100475.38
2023-03-30T13:06:01.384Z,100476.57
2023-03-30T13:07:06.327Z,100471.86
2023-03-30T13:08:18.570Z,100473.13
2023-03-30T13:09:25.454Z,100472.29
2023-03-30T13:10:31.809Z,100474.95
2023-03-30T13:12:04.022Z,100473.10
2023-03-30T13:13:16.279Z,100477.98
2023-03-30T13:14:44.193Z,100479.77
2023-03-30T13:15:49.426Z,100479.48
2023-03-30T13:16:55.189Z,100483.96
2023-03-30T13:18:23.490Z,100477.73
2023-03-30T13:19:32.058Z,100470.83
2023-03-30T13:20:55.044Z,100469.20
2023-03-30T13:22:04.534Z,100468.58
2023-03-30T13:23:10.049Z,100465.80
2023-03-30T13:24:45.509Z,100464.73
2023-03-30T13:25:51.362Z,100464.90